sensor_id;sensor_type;location;lat;lon;timestamp;temperature;humidity
11840;DHT22;5979;50.800;4.904;2023-04-06T00:01:36;4.60;99.90
11840;DHT22;5979;50.800;4.904;2023-04-06T00:04:02;4.60;99.90
11840;DHT22;5979;50.800;4.904;2023-04-06T00:06:27;4.60;99.90
11840;DHT22;5979;50.800;4.904;2023-04-06T00:08:54;4.50;99.90
11840;DHT22;5979;50.800;4.904;2023-04-06T00:11:20;4.50;99.90
11840;DHT22;5979;50.800;4.904;2023-04-06T00:13:46;4.50;99.90
11840;DHT22;5979;50.800;4.904;2023-04-06T00:16:12;4.50;99.90
11840;DHT22;5979;50.800;4.904;2023-04-06T00:18:37;4.50;99.90
11840;DHT22;5979;50.800;4.904;2023-04-06T00:21:03;4.40;99.90
11840;DHT22;5979;50.800;4.904;2023-04-06T00:23:30;4.40;99.90
11840;DHT22;5979;50.800;4.904;2023-04-06T00:25:56;4.40;99.90
11840;DHT22;5979;50.800;4.904;2023-04-06T00:28:22;4.30;99.90
11840;DHT22;5979;50.800;4.904;2023-04-06T00:30:54;4.20;99.90
11840;DHT22;5979;50.800;4.904;2023-04-06T00:33:21;4.10;99.90
11840;DHT22;5979;50.800;4.904;2023-04-06T00:35:47;4.10;99.90
11840;DHT22;5979;50.800;4.904;2023-04-06T00:38:14;4.20;99.90
11840;DHT22;5979;50.800;4.904;2023-04-06T00:40:40;4.10;99.90
11840;DHT22;5979;50.800;4.904;2023-04-06T00:43:06;4.10;99.90
11840;DHT22;5979;50.800;4.904;2023-04-06T00:45:33;4.10;99.90
11840;DHT22;5979;50.800;4.904;2023-04-06T00:47:59;4.10;99.90
11840;DHT22;5979;50.800;4.904;2023-04-06T00:50:25;4.00;99.90
11840;DHT22;5979;50.800;4.904;2023-04-06T00:52:50;4.00;99.90
11840;DHT22;5979;50.800;4.904;2023-04-06T00:55:17;4.00;99.90
11840;DHT22;5979;50.800;4.904;2023-04-06T00:57:43;4.00;99.90
11840;DHT22;5979;50.800;4.904;2023-04-06T01:00:09;4.00;99.90
11840;DHT22;5979;50.800;4.904;2023-04-06T01:02:35;4.00;99.90
11840;DHT22;5979;50.800;4.904;2023-04-06T01:05:01;3.90;99.90
11840;DHT22;5979;50.800;4.904;2023-04-06T01:07:27;3.80;99.90
11840;DHT22;5979;50.800;4.904;2023-04-06T01:09:54;3.80;99.90
11840;DHT22;5979;50.800;4.904;2023-04-06T01:12:20;3.80;99.90
11840;DHT22;5979;50.800;4.904;2023-04-06T01:14:46;3.80;99.90
11840;DHT22;5979;50.800;4.904;2023-04-06T01:17:11;3.90;99.90
11840;DHT22;5979;50.800;4.904;2023-04-06T01:19:37;3.90;99.90
11840;DHT22;5979;50.800;4.904;2023-04-06T01:22:04;4.00;99.90
11840;DHT22;5979;50.800;4.904;2023-04-06T01:24:30;4.00;99.90
11840;DHT22;5979;50.800;4.904;2023-04-06T01:26:55;4.00;99.90
11840;DHT22;5979;50.800;4.904;2023-04-06T01:29:22;4.10;99.90
11840;DHT22;5979;50.800;4.904;2023-04-06T01:31:47;4.10;99.90
11840;DHT22;5979;50.800;4.904;2023-04-06T01:34:13;4.10;99.90
11840;DHT22;5979;50.800;4.904;2023-04-06T01:36:39;4.10;99.90
11840;DHT22;5979;50.800;4.904;2023-04-06T01:39:05;4.10;99.90
11840;DHT22;5979;50.800;4.904;2023-04-06T01:41:30;4.10;99.90
11840;DHT22;5979;50.800;4.904;2023-04-06T01:43:56;4.10;99.90
11840;DHT22;5979;50.800;4.904;2023-04-06T01:46:22;4.10;99.90
11840;DHT22;5979;50.800;4.904;2023-04-06T01:48:47;4.10;99.90
11840;DHT22;5979;50.800;4.904;2023-04-06T01:51:13;4.20;99.90
11840;DHT22;5979;50.800;4.904;2023-04-06T01:53:39;4.20;99.90
11840;DHT22;5979;50.800;4.904;2023-04-06T01:56:05;4.30;99.90
11840;DHT22;5979;50.800;4.904;2023-04-06T01:58:31;4.40;99.90
11840;DHT22;5979;50.800;4.904;2023-04-06T02:00:56;4.40;99.90
11840;DHT22;5979;50.800;4.904;2023-04-06T02:03:22;4.40;99.90
11840;DHT22;5979;50.800;4.904;2023-04-06T02:05:48;4.50;99.90
11840;DHT22;5979;50.800;4.904;2023-04-06T02:08:13;4.50;99.90
11840;DHT22;5979;50.800;4.904;2023-04-06T02:10:39;4.50;99.90
11840;DHT22;5979;50.800;4.904;2023-04-06T02:13:05;4.50;99.90
11840;DHT22;5979;50.800;4.904;2023-04-06T02:15:30;4.50;99.90
11840;DHT22;5979;50.800;4.904;2023-04-06T02:17:57;4.40;99.90
11840;DHT22;5979;50.800;4.904;2023-04-06T02:20:23;4.50;99.90
11840;DHT22;5979;50.800;4.904;2023-04-06T02:22:48;4.50;99.90
11840;DHT22;5979;50.800;4.904;2023-04-06T02:25:14;4.40;99.90
11840;DHT22;5979;50.800;4.904;2023-04-06T02:27:40;4.40;99.90
11840;DHT22;5979;50.800;4.904;2023-04-06T02:30:06;4.40;99.90
11840;DHT22;5979;50.800;4.904;2023-04-06T02:32:32;4.40;99.90
11840;DHT22;5979;50.800;4.904;2023-04-06T02:34:57;4.50;99.90
11840;DHT22;5979;50.800;4.904;2023-04-06T02:37:23;4.50;99.90
11840;DHT22;5979;50.800;4.904;2023-04-06T02:39:49;4.50;99.90
11840;DHT22;5979;50.800;4.904;2023-04-06T02:42:15;4.40;99.90
11840;DHT22;5979;50.800;4.904;2023-04-06T02:44:44;4.40;99.90
11840;DHT22;5979;50.800;4.904;2023-04-06T02:47:10;4.50;99.90
11840;DHT22;5979;50.800;4.904;2023-04-06T02:49:36;4.50;99.90
11840;DHT22;5979;50.800;4.904;2023-04-06T02:52:02;4.50;99.90
11840;DHT22;5979;50.800;4.904;2023-04-06T02:54:28;4.50;99.90
11840;DHT22;5979;50.800;4.904;2023-04-06T02:56:54;4.40;99.90
11840;DHT22;5979;50.800;4.904;2023-04-06T02:59:20;4.40;99.90
11840;DHT22;5979;50.800;4.904;2023-04-06T03:01:45;4.40;99.90
11840;DHT22;5979;50.800;4.904;2023-04-06T03:04:11;4.40;99.90
11840;DHT22;5979;50.800;4.904;2023-04-06T03:06:37;4.40;99.90
11840;DHT22;5979;50.800;4.904;2023-04-06T03:09:03;4.40;99.90
11840;DHT22;5979;50.800;4.904;2023-04-06T03:11:29;4.40;99.90
11840;DHT22;5979;50.800;4.904;2023-04-06T03:13:55;4.50;99.90
11840;DHT22;5979;50.800;4.904;2023-04-06T03:16:20;4.50;99.90
11840;DHT22;5979;50.800;4.904;2023-04-06T03:18:46;4.50;99.90
11840;DHT22;5979;50.800;4.904;2023-04-06T03:21:13;4.60;99.90
11840;DHT22;5979;50.800;4.904;2023-04-06T03:23:41;4.60;99.90
11840;DHT22;5979;50.800;4.904;2023-04-06T03:26:06;4.60;99.90
11840;DHT22;5979;50.800;4.904;2023-04-06T03:28:32;4.70;99.90
11840;DHT22;5979;50.800;4.904;2023-04-06T03:30:59;4.60;99.90
11840;DHT22;5979;50.800;4.904;2023-04-06T03:33:24;4.70;99.90
11840;DHT22;5979;50.800;4.904;2023-04-06T03:35:53;4.70;99.90
11840;DHT22;5979;50.800;4.904;2023-04-06T03:38:18;4.60;99.90
11840;DHT22;5979;50.800;4.904;2023-04-06T03:40:44;4.60;99.90
11840;DHT22;5979;50.800;4.904;2023-04-06T03:43:10;4.60;99.90
11840;DHT22;5979;50.800;4.904;2023-04-06T03:45:36;4.60;99.90
11840;DHT22;5979;50.800;4.904;2023-04-06T03:48:02;4.60;99.90
11840;DHT22;5979;50.800;4.904;2023-04-06T03:50:28;4.60;99.90
11840;DHT22;5979;50.800;4.904;2023-04-06T03:52:53;4.60;99.90
11840;DHT22;5979;50.800;4.904;2023-04-06T03:55:19;4.70;99.90
11840;DHT22;5979;50.800;4.904;2023-04-06T03:57:45;4.70;99.90
11840;DHT22;5979;50.800;4.904;2023-04-06T04:00:11;4.80;99.90
11840;DHT22;5979;50.800;4.904;2023-04-06T04:02:37;4.80;99.90
11840;DHT22;5979;50.800;4.904;2023-04-06T04:05:03;4.80;99.90
11840;DHT22;5979;50.800;4.904;2023-04-06T04:07:29;4.90;99.90
11840;DHT22;5979;50.800;4.904;2023-04-06T04:09:55;4.90;99.90
11840;DHT22;5979;50.800;4.904;2023-04-06T04:12:20;4.90;99.90
11840;DHT22;5979;50.800;4.904;2023-04-06T04:14:46;4.90;99.90
11840;DHT22;5979;50.800;4.904;2023-04-06T04:17:12;4.90;99.90
11840;DHT22;5979;50.800;4.904;2023-04-06T04:19:37;4.90;99.90
11840;DHT22;5979;50.800;4.904;2023-04-06T04:22:03;4.90;99.90
11840;DHT22;5979;50.800;4.904;2023-04-06T04:24:30;4.90;99.90
11840;DHT22;5979;50.800;4.904;2023-04-06T04:26:56;4.90;99.90
11840;DHT22;5979;50.800;4.904;2023-04-06T04:29:22;4.90;99.90
11840;DHT22;5979;50.800;4.904;2023-04-06T04:31:49;5.00;99.90
11840;DHT22;5979;50.800;4.904;2023-04-06T04:34:15;4.90;99.90
11840;DHT22;5979;50.800;4.904;2023-04-06T04:36:41;4.90;99.90
11840;DHT22;5979;50.800;4.904;2023-04-06T04:39:10;4.90;99.90
11840;DHT22;5979;50.800;4.904;2023-04-06T04:41:35;4.90;99.90
11840;DHT22;5979;50.800;4.904;2023-04-06T04:44:02;4.90;99.90
11840;DHT22;5979;50.800;4.904;2023-04-06T04:46:27;4.90;99.90
11840;DHT22;5979;50.800;4.904;2023-04-06T04:48:53;4.90;99.90
11840;DHT22;5979;50.800;4.904;2023-04-06T04:51:19;5.00;99.90
11840;DHT22;5979;50.800;4.904;2023-04-06T04:53:47;5.00;99.90
11840;DHT22;5979;50.800;4.904;2023-04-06T04:56:13;5.10;99.90
11840;DHT22;5979;50.800;4.904;2023-04-06T04:58:41;5.10;99.90
11840;DHT22;5979;50.800;4.904;2023-04-06T05:01:08;5.10;99.90
11840;DHT22;5979;50.800;4.904;2023-04-06T05:03:33;5.20;99.90
11840;DHT22;5979;50.800;4.904;2023-04-06T05:06:01;5.20;99.90
11840;DHT22;5979;50.800;4.904;2023-04-06T05:08:26;5.20;99.90
11840;DHT22;5979;50.800;4.904;2023-04-06T05:10:52;5.30;99.90
11840;DHT22;5979;50.800;4.904;2023-04-06T05:13:18;5.30;99.90
11840;DHT22;5979;50.800;4.904;2023-04-06T05:15:44;5.30;99.90
11840;DHT22;5979;50.800;4.904;2023-04-06T05:18:10;5.30;99.90
11840;DHT22;5979;50.800;4.904;2023-04-06T05:20:37;5.30;99.90
11840;DHT22;5979;50.800;4.904;2023-04-06T05:23:03;5.30;99.90
11840;DHT22;5979;50.800;4.904;2023-04-06T05:25:29;5.40;99.90
11840;DHT22;5979;50.800;4.904;2023-04-06T05:27:55;5.40;99.90
11840;DHT22;5979;50.800;4.904;2023-04-06T05:30:20;5.40;99.90
11840;DHT22;5979;50.800;4.904;2023-04-06T05:32:46;5.50;99.90
11840;DHT22;5979;50.800;4.904;2023-04-06T05:35:12;5.50;99.90
11840;DHT22;5979;50.800;4.904;2023-04-06T05:37:38;5.50;99.90
11840;DHT22;5979;50.800;4.904;2023-04-06T05:40:05;5.50;99.90
11840;DHT22;5979;50.800;4.904;2023-04-06T05:42:40;5.60;99.90
11840;DHT22;5979;50.800;4.904;2023-04-06T05:45:07;5.60;99.90
11840;DHT22;5979;50.800;4.904;2023-04-06T05:47:33;5.60;99.90
11840;DHT22;5979;50.800;4.904;2023-04-06T05:49:59;5.70;99.90
11840;DHT22;5979;50.800;4.904;2023-04-06T05:52:25;5.70;99.90
11840;DHT22;5979;50.800;4.904;2023-04-06T05:54:51;5.60;99.90
11840;DHT22;5979;50.800;4.904;2023-04-06T05:57:17;5.70;99.90
11840;DHT22;5979;50.800;4.904;2023-04-06T05:59:43;5.70;99.90
11840;DHT22;5979;50.800;4.904;2023-04-06T06:02:09;5.70;99.90
11840;DHT22;5979;50.800;4.904;2023-04-06T06:04:35;5.80;99.90
11840;DHT22;5979;50.800;4.904;2023-04-06T06:07:00;5.80;99.90
11840;DHT22;5979;50.800;4.904;2023-04-06T06:09:26;5.90;99.90
11840;DHT22;5979;50.800;4.904;2023-04-06T06:11:52;5.90;99.90
11840;DHT22;5979;50.800;4.904;2023-04-06T06:14:18;5.90;99.90
11840;DHT22;5979;50.800;4.904;2023-04-06T06:16:43;6.00;99.90
11840;DHT22;5979;50.800;4.904;2023-04-06T06:19:09;6.10;99.90
11840;DHT22;5979;50.800;4.904;2023-04-06T06:21:35;6.10;99.90
11840;DHT22;5979;50.800;4.904;2023-04-06T06:24:01;6.20;99.90
11840;DHT22;5979;50.800;4.904;2023-04-06T06:26:27;6.30;99.90
11840;DHT22;5979;50.800;4.904;2023-04-06T06:28:53;6.40;99.90
11840;DHT22;5979;50.800;4.904;2023-04-06T06:31:19;6.50;99.90
11840;DHT22;5979;50.800;4.904;2023-04-06T06:33:50;6.50;99.90
11840;DHT22;5979;50.800;4.904;2023-04-06T06:36:17;6.60;99.90
11840;DHT22;5979;50.800;4.904;2023-04-06T06:38:43;6.70;99.90
11840;DHT22;5979;50.800;4.904;2023-04-06T06:41:10;6.80;99.90
11840;DHT22;5979;50.800;4.904;2023-04-06T06:43:36;6.80;99.90
11840;DHT22;5979;50.800;4.904;2023-04-06T06:46:02;6.80;99.90
11840;DHT22;5979;50.800;4.904;2023-04-06T06:48:28;6.90;99.90
11840;DHT22;5979;50.800;4.904;2023-04-06T06:50:54;7.00;99.90
11840;DHT22;5979;50.800;4.904;2023-04-06T06:53:20;7.10;99.90
11840;DHT22;5979;50.800;4.904;2023-04-06T06:55:45;7.10;99.90
11840;DHT22;5979;50.800;4.904;2023-04-06T06:58:11;7.20;99.90
11840;DHT22;5979;50.800;4.904;2023-04-06T07:00:37;7.30;99.90
11840;DHT22;5979;50.800;4.904;2023-04-06T07:03:03;7.40;99.90
11840;DHT22;5979;50.800;4.904;2023-04-06T07:05:29;7.50;99.90
11840;DHT22;5979;50.800;4.904;2023-04-06T07:07:55;7.50;99.90
11840;DHT22;5979;50.800;4.904;2023-04-06T07:10:21;7.50;99.90
11840;DHT22;5979;50.800;4.904;2023-04-06T07:12:47;7.60;99.90
11840;DHT22;5979;50.800;4.904;2023-04-06T07:15:13;7.60;99.90
11840;DHT22;5979;50.800;4.904;2023-04-06T07:17:39;7.60;99.90
11840;DHT22;5979;50.800;4.904;2023-04-06T07:20:07;7.70;99.90
11840;DHT22;5979;50.800;4.904;2023-04-06T07:22:33;7.70;99.90
11840;DHT22;5979;50.800;4.904;2023-04-06T07:24:58;7.70;99.90
11840;DHT22;5979;50.800;4.904;2023-04-06T07:27:24;7.70;99.90
11840;DHT22;5979;50.800;4.904;2023-04-06T07:29:50;7.70;99.90
11840;DHT22;5979;50.800;4.904;2023-04-06T07:32:15;7.70;99.90
11840;DHT22;5979;50.800;4.904;2023-04-06T07:34:41;7.80;99.90
11840;DHT22;5979;50.800;4.904;2023-04-06T07:37:07;7.80;99.90
11840;DHT22;5979;50.800;4.904;2023-04-06T07:39:33;7.90;99.90
11840;DHT22;5979;50.800;4.904;2023-04-06T07:41:59;7.90;99.90
11840;DHT22;5979;50.800;4.904;2023-04-06T07:44:25;8.00;99.90
11840;DHT22;5979;50.800;4.904;2023-04-06T07:46:50;8.10;99.90
11840;DHT22;5979;50.800;4.904;2023-04-06T07:49:16;8.10;99.90
11840;DHT22;5979;50.800;4.904;2023-04-06T07:51:42;8.10;99.90
11840;DHT22;5979;50.800;4.904;2023-04-06T07:54:08;8.20;99.90
11840;DHT22;5979;50.800;4.904;2023-04-06T07:56:33;8.20;99.90
11840;DHT22;5979;50.800;4.904;2023-04-06T07:58:59;8.20;99.90
11840;DHT22;5979;50.800;4.904;2023-04-06T08:01:25;8.20;99.90
11840;DHT22;5979;50.800;4.904;2023-04-06T08:03:51;8.30;99.90
11840;DHT22;5979;50.800;4.904;2023-04-06T08:06:17;8.30;99.90
11840;DHT22;5979;50.800;4.904;2023-04-06T08:08:43;8.40;99.90
11840;DHT22;5979;50.800;4.904;2023-04-06T08:11:09;8.50;99.90
11840;DHT22;5979;50.800;4.904;2023-04-06T08:13:35;8.50;99.90
11840;DHT22;5979;50.800;4.904;2023-04-06T08:16:01;8.60;99.90
11840;DHT22;5979;50.800;4.904;2023-04-06T08:18:27;8.70;99.90
11840;DHT22;5979;50.800;4.904;2023-04-06T08:20:55;8.80;99.90
11840;DHT22;5979;50.800;4.904;2023-04-06T08:23:21;8.80;99.90
11840;DHT22;5979;50.800;4.904;2023-04-06T08:25:47;8.90;99.90
11840;DHT22;5979;50.800;4.904;2023-04-06T08:28:12;8.90;99.90
11840;DHT22;5979;50.800;4.904;2023-04-06T08:30:44;9.00;99.90
11840;DHT22;5979;50.800;4.904;2023-04-06T08:33:10;9.00;99.90
11840;DHT22;5979;50.800;4.904;2023-04-06T08:35:36;9.10;99.90
11840;DHT22;5979;50.800;4.904;2023-04-06T08:38:01;9.00;99.90
11840;DHT22;5979;50.800;4.904;2023-04-06T08:40:27;9.00;99.90
11840;DHT22;5979;50.800;4.904;2023-04-06T08:42:56;9.00;99.90
11840;DHT22;5979;50.800;4.904;2023-04-06T08:45:22;8.90;99.90
11840;DHT22;5979;50.800;4.904;2023-04-06T08:47:50;8.90;99.90
11840;DHT22;5979;50.800;4.904;2023-04-06T08:50:18;8.90;99.90
11840;DHT22;5979;50.800;4.904;2023-04-06T08:52:46;8.90;99.90
11840;DHT22;5979;50.800;4.904;2023-04-06T08:55:12;8.90;99.90
11840;DHT22;5979;50.800;4.904;2023-04-06T08:57:38;8.80;99.90
11840;DHT22;5979;50.800;4.904;2023-04-06T09:00:04;8.90;99.90
11840;DHT22;5979;50.800;4.904;2023-04-06T09:02:31;8.90;99.90
11840;DHT22;5979;50.800;4.904;2023-04-06T09:04:58;9.00;99.90
11840;DHT22;5979;50.800;4.904;2023-04-06T09:07:24;9.00;99.90
11840;DHT22;5979;50.800;4.904;2023-04-06T09:09:50;9.00;99.90
11840;DHT22;5979;50.800;4.904;2023-04-06T09:12:24;9.00;99.90
11840;DHT22;5979;50.800;4.904;2023-04-06T09:14:50;9.10;99.90
11840;DHT22;5979;50.800;4.904;2023-04-06T09:17:20;9.00;99.90
11840;DHT22;5979;50.800;4.904;2023-04-06T09:19:47;9.10;99.90
11840;DHT22;5979;50.800;4.904;2023-04-06T09:22:12;9.10;99.90
11840;DHT22;5979;50.800;4.904;2023-04-06T09:27:11;9.20;99.90
11840;DHT22;5979;50.800;4.904;2023-04-06T09:29:37;9.30;99.90
11840;DHT22;5979;50.800;4.904;2023-04-06T09:32:04;9.40;99.90
11840;DHT22;5979;50.800;4.904;2023-04-06T09:34:31;9.40;99.90
11840;DHT22;5979;50.800;4.904;2023-04-06T09:36:57;9.40;99.90
11840;DHT22;5979;50.800;4.904;2023-04-06T09:39:23;9.40;99.90
11840;DHT22;5979;50.800;4.904;2023-04-06T09:41:53;9.30;99.90
11840;DHT22;5979;50.800;4.904;2023-04-06T09:44:19;9.30;99.90
11840;DHT22;5979;50.800;4.904;2023-04-06T09:46:46;9.20;99.90
11840;DHT22;5979;50.800;4.904;2023-04-06T09:49:13;9.20;99.90
11840;DHT22;5979;50.800;4.904;2023-04-06T09:51:45;9.20;99.90
11840;DHT22;5979;50.800;4.904;2023-04-06T09:54:21;9.30;99.90
11840;DHT22;5979;50.800;4.904;2023-04-06T09:56:51;9.30;99.90
11840;DHT22;5979;50.800;4.904;2023-04-06T09:59:31;9.40;99.90
11840;DHT22;5979;50.800;4.904;2023-04-06T10:01:59;9.50;99.90
11840;DHT22;5979;50.800;4.904;2023-04-06T10:04:48;9.50;99.90
11840;DHT22;5979;50.800;4.904;2023-04-06T10:07:16;9.40;99.90
11840;DHT22;5979;50.800;4.904;2023-04-06T10:09:45;9.40;99.90
11840;DHT22;5979;50.800;4.904;2023-04-06T10:12:12;9.30;99.90
11840;DHT22;5979;50.800;4.904;2023-04-06T10:14:38;9.30;99.90
11840;DHT22;5979;50.800;4.904;2023-04-06T10:17:05;9.30;99.90
11840;DHT22;5979;50.800;4.904;2023-04-06T10:22:22;9.30;99.90
11840;DHT22;5979;50.800;4.904;2023-04-06T10:24:48;9.40;99.90
11840;DHT22;5979;50.800;4.904;2023-04-06T10:27:14;9.60;99.90
11840;DHT22;5979;50.800;4.904;2023-04-06T10:29:47;9.60;99.90
11840;DHT22;5979;50.800;4.904;2023-04-06T10:32:16;9.70;99.90
11840;DHT22;5979;50.800;4.904;2023-04-06T10:34:42;9.70;99.90
11840;DHT22;5979;50.800;4.904;2023-04-06T10:37:15;9.70;99.90
11840;DHT22;5979;50.800;4.904;2023-04-06T10:39:48;9.80;99.90
11840;DHT22;5979;50.800;4.904;2023-04-06T10:42:24;9.80;99.90
11840;DHT22;5979;50.800;4.904;2023-04-06T10:44:50;9.80;99.90
11840;DHT22;5979;50.800;4.904;2023-04-06T10:47:17;9.80;99.90
11840;DHT22;5979;50.800;4.904;2023-04-06T10:49:45;9.80;99.90
11840;DHT22;5979;50.800;4.904;2023-04-06T10:52:11;9.80;99.90
11840;DHT22;5979;50.800;4.904;2023-04-06T10:54:42;9.80;99.90
11840;DHT22;5979;50.800;4.904;2023-04-06T10:57:10;9.90;99.90
11840;DHT22;5979;50.800;4.904;2023-04-06T10:59:42;10.00;99.90
11840;DHT22;5979;50.800;4.904;2023-04-06T11:02:08;10.00;99.90
11840;DHT22;5979;50.800;4.904;2023-04-06T11:04:34;10.00;99.90
11840;DHT22;5979;50.800;4.904;2023-04-06T11:07:00;10.10;99.90
11840;DHT22;5979;50.800;4.904;2023-04-06T11:09:30;10.10;99.90
11840;DHT22;5979;50.800;4.904;2023-04-06T11:11:57;10.10;99.90
11840;DHT22;5979;50.800;4.904;2023-04-06T11:14:22;10.20;99.90
11840;DHT22;5979;50.800;4.904;2023-04-06T11:16:48;10.10;99.90
11840;DHT22;5979;50.800;4.904;2023-04-06T11:19:17;10.10;99.90
11840;DHT22;5979;50.800;4.904;2023-04-06T11:21:47;10.10;99.90
11840;DHT22;5979;50.800;4.904;2023-04-06T11:24:23;10.00;99.90
11840;DHT22;5979;50.800;4.904;2023-04-06T11:26:54;9.90;99.90
11840;DHT22;5979;50.800;4.904;2023-04-06T11:29:24;9.80;99.90
11840;DHT22;5979;50.800;4.904;2023-04-06T11:31:58;9.80;99.90
11840;DHT22;5979;50.800;4.904;2023-04-06T11:34:25;9.80;99.90
11840;DHT22;5979;50.800;4.904;2023-04-06T11:36:58;10.00;99.90
11840;DHT22;5979;50.800;4.904;2023-04-06T11:39:25;10.10;99.90
11840;DHT22;5979;50.800;4.904;2023-04-06T11:41:54;10.20;99.90
11840;DHT22;5979;50.800;4.904;2023-04-06T11:44:31;10.20;99.90
11840;DHT22;5979;50.800;4.904;2023-04-06T11:46:57;10.30;99.90
11840;DHT22;5979;50.800;4.904;2023-04-06T11:49:27;10.30;99.90
11840;DHT22;5979;50.800;4.904;2023-04-06T11:51:54;10.10;99.90
11840;DHT22;5979;50.800;4.904;2023-04-06T11:54:40;10.10;99.90
11840;DHT22;5979;50.800;4.904;2023-04-06T11:57:08;10.10;99.90
11840;DHT22;5979;50.800;4.904;2023-04-06T11:59:34;10.20;99.90
11840;DHT22;5979;50.800;4.904;2023-04-06T12:02:04;10.10;99.90
11840;DHT22;5979;50.800;4.904;2023-04-06T12:04:31;10.10;99.90
11840;DHT22;5979;50.800;4.904;2023-04-06T12:06:57;10.10;99.90
11840;DHT22;5979;50.800;4.904;2023-04-06T12:09:23;10.00;99.90
11840;DHT22;5979;50.800;4.904;2023-04-06T12:11:49;10.10;99.90
11840;DHT22;5979;50.800;4.904;2023-04-06T12:14:15;10.10;99.90
11840;DHT22;5979;50.800;4.904;2023-04-06T12:16:41;10.20;99.90
11840;DHT22;5979;50.800;4.904;2023-04-06T12:19:07;10.20;99.90
11840;DHT22;5979;50.800;4.904;2023-04-06T12:21:34;10.30;99.90
11840;DHT22;5979;50.800;4.904;2023-04-06T12:24:02;10.50;99.90
11840;DHT22;5979;50.800;4.904;2023-04-06T12:26:29;10.50;99.90
11840;DHT22;5979;50.800;4.904;2023-04-06T12:28:55;10.50;99.90
11840;DHT22;5979;50.800;4.904;2023-04-06T12:31:21;10.30;99.90
11840;DHT22;5979;50.800;4.904;2023-04-06T12:33:49;10.40;99.90
11840;DHT22;5979;50.800;4.904;2023-04-06T12:36:16;10.40;99.90
11840;DHT22;5979;50.800;4.904;2023-04-06T12:38:44;10.40;99.90
11840;DHT22;5979;50.800;4.904;2023-04-06T12:41:11;10.50;99.90
11840;DHT22;5979;50.800;4.904;2023-04-06T12:43:38;10.50;99.90
11840;DHT22;5979;50.800;4.904;2023-04-06T12:46:04;10.50;99.90
11840;DHT22;5979;50.800;4.904;2023-04-06T12:48:31;10.40;99.90
11840;DHT22;5979;50.800;4.904;2023-04-06T12:50:58;10.30;99.90
11840;DHT22;5979;50.800;4.904;2023-04-06T12:53:24;10.30;99.90
11840;DHT22;5979;50.800;4.904;2023-04-06T12:55:51;10.40;99.90
11840;DHT22;5979;50.800;4.904;2023-04-06T12:58:17;10.50;99.90
11840;DHT22;5979;50.800;4.904;2023-04-06T13:00:43;10.60;99.90
11840;DHT22;5979;50.800;4.904;2023-04-06T13:03:09;10.50;99.90
11840;DHT22;5979;50.800;4.904;2023-04-06T13:05:34;10.60;99.90
11840;DHT22;5979;50.800;4.904;2023-04-06T13:08:01;10.50;99.90
11840;DHT22;5979;50.800;4.904;2023-04-06T13:10:26;10.40;99.90
11840;DHT22;5979;50.800;4.904;2023-04-06T13:12:52;10.30;99.90
11840;DHT22;5979;50.800;4.904;2023-04-06T13:15:18;10.30;99.90
11840;DHT22;5979;50.800;4.904;2023-04-06T13:17:44;10.20;99.90
11840;DHT22;5979;50.800;4.904;2023-04-06T13:20:10;10.30;99.90
11840;DHT22;5979;50.800;4.904;2023-04-06T13:22:36;10.20;99.90
11840;DHT22;5979;50.800;4.904;2023-04-06T13:25:02;10.20;99.90
11840;DHT22;5979;50.800;4.904;2023-04-06T13:27:27;10.20;99.90
11840;DHT22;5979;50.800;4.904;2023-04-06T13:29:55;10.20;99.90
11840;DHT22;5979;50.800;4.904;2023-04-06T13:32:21;10.20;99.90
11840;DHT22;5979;50.800;4.904;2023-04-06T13:34:47;10.20;99.90
11840;DHT22;5979;50.800;4.904;2023-04-06T13:37:15;10.20;99.90
11840;DHT22;5979;50.800;4.904;2023-04-06T13:39:41;10.30;99.90
11840;DHT22;5979;50.800;4.904;2023-04-06T13:42:06;10.20;99.90
11840;DHT22;5979;50.800;4.904;2023-04-06T13:44:32;10.20;99.90
11840;DHT22;5979;50.800;4.904;2023-04-06T13:46:58;10.30;99.90
11840;DHT22;5979;50.800;4.904;2023-04-06T13:49:24;10.10;99.90
11840;DHT22;5979;50.800;4.904;2023-04-06T13:51:50;10.10;99.90
11840;DHT22;5979;50.800;4.904;2023-04-06T13:54:16;10.10;99.90
11840;DHT22;5979;50.800;4.904;2023-04-06T13:56:42;10.00;99.90
11840;DHT22;5979;50.800;4.904;2023-04-06T13:59:07;9.90;99.90
11840;DHT22;5979;50.800;4.904;2023-04-06T14:01:33;10.00;99.90
11840;DHT22;5979;50.800;4.904;2023-04-06T14:03:59;9.90;99.90
11840;DHT22;5979;50.800;4.904;2023-04-06T14:06:24;9.90;99.90
11840;DHT22;5979;50.800;4.904;2023-04-06T14:08:50;10.00;99.90
11840;DHT22;5979;50.800;4.904;2023-04-06T14:11:17;10.00;99.90
11840;DHT22;5979;50.800;4.904;2023-04-06T14:13:43;10.00;99.90
11840;DHT22;5979;50.800;4.904;2023-04-06T14:16:08;10.10;99.90
11840;DHT22;5979;50.800;4.904;2023-04-06T14:18:35;10.10;99.90
11840;DHT22;5979;50.800;4.904;2023-04-06T14:21:01;10.20;99.90
11840;DHT22;5979;50.800;4.904;2023-04-06T14:23:27;10.20;99.90
11840;DHT22;5979;50.800;4.904;2023-04-06T14:26:04;10.20;99.90
11840;DHT22;5979;50.800;4.904;2023-04-06T14:28:31;10.30;99.90
11840;DHT22;5979;50.800;4.904;2023-04-06T14:31:02;10.30;99.90
11840;DHT22;5979;50.800;4.904;2023-04-06T14:33:31;10.30;99.90
11840;DHT22;5979;50.800;4.904;2023-04-06T14:35:56;10.20;99.90
11840;DHT22;5979;50.800;4.904;2023-04-06T14:38:22;10.20;99.90
11840;DHT22;5979;50.800;4.904;2023-04-06T14:40:48;10.20;99.90
11840;DHT22;5979;50.800;4.904;2023-04-06T14:43:14;10.10;99.90
11840;DHT22;5979;50.800;4.904;2023-04-06T14:45:40;10.10;99.90
11840;DHT22;5979;50.800;4.904;2023-04-06T14:48:06;10.10;99.90
11840;DHT22;5979;50.800;4.904;2023-04-06T14:50:32;10.10;99.90
11840;DHT22;5979;50.800;4.904;2023-04-06T14:52:59;10.10;99.90
11840;DHT22;5979;50.800;4.904;2023-04-06T14:55:25;10.10;99.90
11840;DHT22;5979;50.800;4.904;2023-04-06T14:57:51;10.10;99.90
11840;DHT22;5979;50.800;4.904;2023-04-06T15:00:17;10.10;99.90
11840;DHT22;5979;50.800;4.904;2023-04-06T15:02:42;10.10;99.90
11840;DHT22;5979;50.800;4.904;2023-04-06T15:05:08;10.10;99.90
11840;DHT22;5979;50.800;4.904;2023-04-06T15:07:34;10.00;99.90
11840;DHT22;5979;50.800;4.904;2023-04-06T15:10:00;10.00;99.90
11840;DHT22;5979;50.800;4.904;2023-04-06T15:12:26;10.00;99.90
11840;DHT22;5979;50.800;4.904;2023-04-06T15:14:52;10.00;99.90
11840;DHT22;5979;50.800;4.904;2023-04-06T15:17:17;9.90;99.90
11840;DHT22;5979;50.800;4.904;2023-04-06T15:19:43;9.90;99.90
11840;DHT22;5979;50.800;4.904;2023-04-06T15:22:08;9.90;99.90
11840;DHT22;5979;50.800;4.904;2023-04-06T15:24:36;10.00;99.90
11840;DHT22;5979;50.800;4.904;2023-04-06T15:27:02;10.00;99.90
11840;DHT22;5979;50.800;4.904;2023-04-06T15:29:29;10.00;99.90
11840;DHT22;5979;50.800;4.904;2023-04-06T15:31:55;10.20;99.90
11840;DHT22;5979;50.800;4.904;2023-04-06T15:34:21;10.20;99.90
11840;DHT22;5979;50.800;4.904;2023-04-06T15:36:46;10.30;99.90
11840;DHT22;5979;50.800;4.904;2023-04-06T15:39:12;10.30;99.90
11840;DHT22;5979;50.800;4.904;2023-04-06T15:41:39;10.20;99.90
11840;DHT22;5979;50.800;4.904;2023-04-06T15:44:04;10.40;99.90
11840;DHT22;5979;50.800;4.904;2023-04-06T15:46:30;10.40;99.90
11840;DHT22;5979;50.800;4.904;2023-04-06T15:48:56;10.40;99.90
11840;DHT22;5979;50.800;4.904;2023-04-06T15:51:22;10.40;99.90
11840;DHT22;5979;50.800;4.904;2023-04-06T15:53:48;10.50;99.90
11840;DHT22;5979;50.800;4.904;2023-04-06T15:56:14;10.60;99.90
11840;DHT22;5979;50.800;4.904;2023-04-06T15:58:40;10.50;99.90